Flight Track Log - Related Links

Times and Time Zones

All times are in EDT time to prevent confusion due to time zone crossing. See the ASH3770 flight status page for this flight to view local times or setup timezone preferences in your user account.

Time Position Orientation Groundspeed Altitude Reporting Facility
EDT Latitude Longitude Course Direction KTS MPH feet Rate Location/Type
Fri 09:40:39 PM 42.0167 -87.9167 37° Northeast 175 201 2,400  Level Chicago TRACON
Fri 09:41:39 PM 42.0667 -87.8667 37° Northeast 245 282 4,200 1,282 Climbing Chicago TRACON
Fri 09:42:50 PM 42.1278 -87.8053 37° Northeast 256 295 5,200 1,669 Climbing Chicago Center
Fri 09:43:52 PM 42.1864 -87.7442 38° Northeast 266 306 7,900 2,565 Climbing Chicago Center
Fri 09:44:54 PM 42.2147 -87.6544 67° East 293 337 10,500 2,419 Climbing Chicago Center
Fri 09:45:56 PM 42.2003 -87.5436 100° East 303 349 12,900 2,439 Climbing Chicago Center
Fri 09:46:57 PM 42.1739 -87.4025 104° East 322 371 15,500 2,000 Climbing Chicago Center
Fri 09:47:59 PM 42.1506 -87.2728 104° East 350 403 17,000 1,694 Climbing Chicago Center
Fri 09:49:01 PM 42.1242 -87.1325 104° East 382 440 19,000 1,839 Climbing Chicago Center
Fri 09:50:03 PM 42.1147 -86.9875 95° East 390 449 20,800 1,805 Climbing Chicago Center
Fri 09:51:04 PM 42.1203 -86.8381 87° East 399 459 22,700 1,902 Climbing Chicago Center
Fri 09:52:06 PM 42.1261 -86.6692 87° East 400 460 24,700 1,632 Climbing Chicago Center
Fri 09:53:09 PM 42.1308 -86.5158 88° East 408 470 26,100 1,268 Climbing Chicago Center
Fri 09:54:09 PM 42.1361 -86.3592 87° East 417 480 27,300 1,082 Climbing Chicago Center
Fri 09:55:11 PM 42.1408 -86.1975 88° East 428 493 28,300 968 Climbing Chicago Center
Fri 09:56:13 PM 42.1439 -86.0300 89° East 443 510 29,300 1,171 Climbing Chicago Center
Fri 09:57:14 PM 42.1417 -85.8442 91° East 444 511 30,700 1,317 Climbing Chicago Center
Fri 09:58:16 PM 42.1533 -85.6811 84° East 444 511 32,000 1,258 Climbing Chicago Center
Fri 09:59:18 PM 42.1864 -85.5258 74° East 437 503 33,300 1,171 Climbing Chicago Center
Fri 10:00:19 PM 42.2203 -85.3722 73° East 432 497 34,400 927 Climbing Chicago Center
Fri 10:01:21 PM 42.2297 -85.2097 85° East 442 509 35,200 683 Climbing Chicago Center
Fri 10:02:22 PM 42.2314 -85.0458 89° East 441 507 35,800 683 Climbing Chicago Center
Fri 10:03:24 PM 42.2358 -84.8472 88° East 443 510 36,600 581 Climbing Chicago Center
Fri 10:04:26 PM 42.2483 -84.6822 84° East 443 510 37,000 195 Climbing Chicago Center
Fri 10:05:27 PM 42.2600 -84.5117 85° East 456 525 37,000  Level Chicago Center
Fri 10:06:32 PM 42.2725 -84.3156 85° East 452 520 37,000  Level Cleveland Center
Fri 10:07:32 PM 42.2842 -84.1422 85° East 459 528 37,000  Level Cleveland Center
Fri 10:08:32 PM 42.2956 -83.9689 85° East 459 528 37,000  Level Cleveland Center
Fri 10:09:32 PM 42.3089 -83.7953 84° East 459 528 37,000  Level Cleveland Center
Fri 10:10:32 PM 42.3200 -83.6189 85° East 459 528 37,000  Level Cleveland Center
Fri 10:11:32 PM 42.3283 -83.4592 86° East 474 545 37,000  Level Cleveland Center
Fri 10:12:32 PM 42.3408 -83.2828 84° East 474 545 37,000  Level Cleveland Center
Fri 10:13:32 PM 42.3514 -83.1033 85° East 479 551 37,000  Level Cleveland Center
Fri 10:14:32 PM 42.3633 -82.9267 85° East 474 545 37,000  Level Cleveland Center
Fri 10:15:32 PM 42.3731 -82.7444 86° East 474 545 37,000  Level Cleveland Center
Fri 10:16:32 PM 42.3825 -82.5678 86° East 474 545 37,000  Level Cleveland Center
Fri 10:17:32 PM 42.3919 -82.3881 86° East 479 551 37,000  Level Cleveland Center
Fri 10:18:32 PM 42.4028 -82.2111 85° East 474 545 37,000  Level Cleveland Center
Fri 10:19:32 PM 42.4139 -82.0147 86° East 474 545 37,000  Level Cleveland Center
Fri 10:20:32 PM 42.4242 -81.8375 85° East 474 545 37,000  Level Cleveland Center
Fri 10:21:32 PM 42.4300 -81.6633 87° East 469 540 37,000  Level Cleveland Center
Fri 10:22:32 PM 42.4397 -81.5089 85° East 469 540 37,000  Level Cleveland Center
Fri 10:23:32 PM 42.4453 -81.3317 88° East 469 540 37,000  Level Cleveland Center
Fri 10:24:32 PM 42.4547 -81.1517 86° East 469 540 37,000  Level Cleveland Center
Fri 10:25:32 PM 42.4617 -80.9772 87° East 469 540 37,000  Level Cleveland Center
Fri 10:26:32 PM 42.4683 -80.8028 87° East 463 533 37,000  Level Cleveland Center
Fri 10:27:32 PM 42.4769 -80.6086 86° East 458 527 37,000  Level Cleveland Center
Fri 10:28:32 PM 42.4808 -80.4283 88° East 464 534 37,000  Level Cleveland Center
Fri 10:29:32 PM 42.4889 -80.2567 86° East 464 534 37,000  Level Cleveland Center
Fri 10:30:32 PM 42.4944 -80.0792 88° East 470 541 37,000  Level Cleveland Center
Fri 10:31:32 PM 42.5042 -79.9017 86° East 470 541 37,000  Level Cleveland Center
Fri 10:32:32 PM 42.5069 -79.7242 89° East 470 541 37,000  Level Cleveland Center
Fri 10:33:32 PM 42.5119 -79.5467 88° East 470 541 37,000  Level Cleveland Center
Fri 10:34:32 PM 42.5183 -79.3692 87° East 470 541 37,000  Level Cleveland Center
Fri 10:35:32 PM 42.5247 -79.1858 87° East 475 547 37,000  Level Cleveland Center
Fri 10:36:32 PM 42.5286 -79.0083 88° East 475 547 37,000  Level Cleveland Center
Fri 10:37:32 PM 42.5303 -78.8250 89° East 480 552 37,000  Level Cleveland Center
Fri 10:38:32 PM 42.5358 -78.6475 88° East 480 552 37,000  Level Cleveland Center
Fri 10:39:32 PM 42.5389 -78.4669 89° East 480 552 37,000  Level Cleveland Center
Fri 10:40:32 PM 42.5417 -78.2864 89° East 480 552 37,000  Level Cleveland Center
Fri 10:41:32 PM 42.5442 -78.1031 89° East 480 552 37,000  Level Cleveland Center
Fri 10:42:32 PM 42.5467 -77.9394 89° East 480 552 37,000 -50 Level Cleveland Center
Fri 10:43:32 PM 42.5506 -77.7561 88° East 480 552 36,900 -50 Descending Cleveland Center
Fri 10:44:32 PM 42.5522 -77.5758 89° East 480 552 36,900 -500 Level Cleveland Center
Fri 10:45:32 PM 42.5536 -77.3894 89° East 485 558 35,900 -708 Descending Cleveland Center
Fri 10:47:13 PM 42.5564 -77.0606 89° East 483 556 35,000 -335 Descending Boston Center
Fri 10:48:13 PM 42.5575 -76.8775 89° East 483 556 35,000  Level Boston Center
Fri 10:49:13 PM 42.5583 -76.6969 90° East 483 556 35,000  Level Boston Center
Fri 10:50:13 PM 42.5586 -76.5136 90° East 477 549 35,000 -500 Level Boston Center
Fri 10:51:13 PM 42.5464 -76.3297 95° East 482 555 34,000 -1,100 Descending Boston Center
Fri 10:52:13 PM 42.5358 -76.1458 94° East 482 555 32,800 -1,200 Descending Boston Center
Fri 10:53:13 PM 42.5228 -75.9647 96° East 482 555 31,600 -1,200 Descending Boston Center
Fri 10:54:13 PM 42.5075 -75.7806 96° East 482 555 30,400 -1,250 Descending Boston Center
Fri 10:55:13 PM 42.4942 -75.5969 96° East 482 555 29,100 -1,400 Descending Boston Center
Fri 10:56:13 PM 42.4803 -75.4158 96° East 482 555 27,600 -1,500 Descending Boston Center
Fri 10:57:13 PM 42.4681 -75.2381 95° East 482 555 26,100 -1,500 Descending Boston Center
Fri 10:58:13 PM 42.4700 -75.0747 89° East 482 555 24,600 -1,500 Descending Boston Center
Fri 10:59:13 PM 42.4739 -74.8975 88° East 477 549 23,100 -1,500 Descending Boston Center
Fri 11:00:13 PM 42.4775 -74.7258 88° East 465 535 21,600 -1,318 Descending Boston Center
Fri 11:01:25 PM 42.4811 -74.5317 88° East 446 513 20,200 -1,045 Descending Boston Center
Fri 11:02:25 PM 42.4839 -74.3800 89° East 422 486 19,300 -600 Descending Boston Center
Fri 11:03:25 PM 42.4842 -74.2306 90° East 397 457 19,000 -800 Descending Boston Center
Fri 11:04:25 PM 42.4867 -74.0675 89° East 397 457 17,700 -1,000 Descending Boston Center
Fri 11:05:25 PM 42.4886 -73.9381 89° East 387 445 17,000 -350 Descending Boston Center
Fri 11:06:25 PM 42.4422 -73.8103 116° Southeast 351 404 17,000  Level Boston Center
Fri 11:07:25 PM 42.3869 -73.7164 129° Southeast 340 391 17,000 -200 Level Boston Center
Fri 11:08:25 PM 42.3275 -73.6194 130° Southeast 346 398 16,600 -757 Descending Boston Center
Fri 11:09:08 PM 42.2911 -73.5150 115° Southeast 353 406 15,700 -1,109 Descending Boston Center
Fri 11:09:57 PM 42.2608 -73.4192 113° Southeast 355 409 14,900 -991 Descending Boston Center
Fri 11:10:57 PM 42.2264 -73.2953 111° Southeast 357 411 13,900 -942 Descending Boston Center
Fri 11:11:58 PM 42.1939 -73.1714 109° East 352 405 13,000 -1,033 Descending Boston Center
Fri 11:12:59 PM 42.1592 -73.0564 112° Southeast 338 389 11,800 -1,289 Descending Boston Center
Fri 11:13:59 PM 42.1158 -72.9522 119° Southeast 297 342 10,400 -1,488 Descending Boston Center
Fri 11:15:00 PM 42.0744 -72.8625 122° Southeast 284 327 8,800 -1,525 Descending Boston Center
Fri 11:16:01 PM 42.0561 -72.7700 105° East 279 321 7,300 -1,438 Descending Boston Center
Fri 11:17:01 PM 42.1125 -72.6919 46° Northeast 293 337 5,900 -1,140 Descending Boston Center
Fri 11:18:02 PM 42.1628 -72.6222 46° Northeast 267 307 5,000 -744 Descending Boston Center
Fri 11:19:02 PM 42.1897 -72.5522 63° Northeast 203 234 4,400 -793 Descending Boston Center
Fri 11:20:03 PM 42.1586 -72.4989 128° Southeast 184 212 3,400 -738 Descending Boston Center
Fri 11:21:04 PM 42.1211 -72.4792 159° South 166 191 2,900 -446 Descending Boston Center
Fri 11:22:04 PM 42.0814 -72.4989 200° South 150 173 2,500 -198 Descending Boston Center
Fri 11:23:05 PM 42.0522 -72.5408 227° Southwest 155 178 2,500 -148 Level Boston Center
Fri 11:24:06 PM 42.0189 -72.5825 223° Southwest 159 183 2,200 -295 Descending Boston Center

Login

Don't have an account? Register now (free) for customized features, flight alerts, and more!